Time;durP1;ratioP1;P1;durP2;ratioP2;P2;SDS_P1;SDS_P2;PMS_P1;PMS_P2;Temp;Humidity;BMP_temperature;BMP_pressure;BME280_temperature;BME280_humidity;BME280_pressure;Samples;Min_cycle;Max_cycle;Signal;HPM_P1;HPM_P2
2022/05/14 08:34:50;;;;;;;;;4.00;3.00;;;;;19.29;37.19;101726.94;5997220;23;46574;-45
2022/05/14 08:37:16;;;;;;;;;4.00;3.25;;;;;19.35;37.74;101723.22;4978727;28;45572;-43
2022/05/14 08:39:41;;;;;;;;;3.00;3.00;;;;;19.41;37.34;101730.13;4962851;28;45352;-45
2022/05/14 08:42:10;;;;;;;;;3.00;3.00;;;;;19.46;37.58;101723.69;4980778;28;45418;-46
2022/05/14 08:44:40;;;;;;;;;3.00;2.50;;;;;19.49;37.21;101714.72;4980307;28;46232;-47
2022/05/14 08:47:07;;;;;;;;;4.00;2.50;;;;;19.59;37.54;101725.91;4960745;28;45331;-44
2022/05/14 08:49:35;;;;;;;;;1.00;1.00;;;;;19.64;37.35;101729.28;4960567;28;45178;-45
2022/05/14 08:52:04;;;;;;;;;3.75;2.50;;;;;19.72;37.13;101721.88;4943430;28;45498;-44
2022/05/14 08:54:30;;;;;;;;;3.00;3.00;;;;;19.78;37.16;101715.44;4947642;28;47350;-43
2022/05/14 08:57:18;;;;;;;;;2.75;1.00;;;;;19.85;37.19;101713.44;4960771;28;45435;-46
2022/05/14 08:59:56;;;;;;;;;5.00;3.75;;;;;19.93;37.52;101714.03;4960908;28;45245;-43
2022/05/14 09:02:24;;;;;;;;;3.00;2.00;;;;;20.00;37.33;101714.66;4942891;28;45464;-51
2022/05/14 09:04:54;;;;;;;;;4.25;4.00;;;;;20.05;37.53;101716.22;4953774;28;46127;-49
2022/05/14 09:07:20;;;;;;;;;5.25;3.50;;;;;20.14;37.33;101715.84;4944680;28;45240;-49
2022/05/14 09:09:53;;;;;;;;;3.75;3.00;;;;;20.24;37.22;101720.84;4949043;28;45416;-52
2022/05/14 09:12:22;;;;;;;;;3.50;2.50;;;;;20.30;36.76;101718.81;4960864;28;45178;-51
2022/05/14 09:14:53;;;;;;;;;3.25;2.75;;;;;20.38;36.85;101713.16;4960603;28;46410;-52
2022/05/14 09:17:21;;;;;;;;;4.00;2.50;;;;;20.47;37.34;101714.59;4960225;28;45268;-49
2022/05/14 09:19:49;;;;;;;;;3.00;2.00;;;;;20.54;36.57;101710.75;4960803;28;45428;-47
2022/05/14 09:22:35;;;;;;;;;3.00;3.00;;;;;20.61;36.54;101708.69;4959944;28;45378;-48
2022/05/14 09:25:25;;;;;;;;;4.50;3.25;;;;;20.69;37.14;101716.38;4960182;28;45318;-48
2022/05/14 09:28:01;;;;;;;;;6.00;2.25;;;;;20.74;36.75;101712.63;4955419;28;45442;-50
2022/05/14 09:30:29;;;;;;;;;3.50;3.25;;;;;20.80;36.41;101713.28;4959633;28;45746;-48
2022/05/14 09:32:54;;;;;;;;;4.75;3.00;;;;;20.86;36.93;101711.22;4959626;28;45475;-50
2022/05/14 09:35:24;;;;;;;;;6.50;4.00;;;;;20.92;36.43;101704.78;4948816;28;46639;-53
2022/05/14 09:37:50;;;;;;;;;2.75;2.75;;;;;20.99;36.80;101706.22;4951877;28;45692;-51
2022/05/14 09:40:28;;;;;;;;;3.50;3.25;;;;;21.06;36.17;101702.34;4948341;28;45450;-51
2022/05/14 09:43:17;;;;;;;;;3.50;3.00;;;;;21.15;36.74;101698.41;4949040;28;45632;-51
2022/05/14 09:46:12;;;;;;;;;2.25;2.25;;;;;21.23;36.25;101703.44;4944664;28;45623;-50
2022/05/14 09:48:48;;;;;;;;;3.00;2.25;;;;;21.30;36.54;101699.56;4953346;28;45445;-51
2022/05/14 09:51:26;;;;;;;;;2.50;2.25;;;;;21.36;35.96;101693.94;4951297;28;45402;-51
2022/05/14 09:53:52;;;;;;;;;1.25;1.25;;;;;21.41;36.07;101685.72;4944427;28;45440;-50
2022/05/14 09:56:30;;;;;;;;;3.25;3.00;;;;;21.51;35.78;101687.03;4945678;28;47677;-50
2022/05/14 09:59:21;;;;;;;;;3.00;3.00;;;;;21.61;35.96;101681.28;4945842;28;46346;-55
2022/05/14 10:01:59;;;;;;;;;2.25;2.25;;;;;21.71;36.26;101677.25;4942671;28;45514;-53
2022/05/14 10:04:49;;;;;;;;;2.00;2.00;;;;;21.84;36.09;101672.22;4934745;28;45414;-53
2022/05/14 10:07:18;;;;;;;;;3.00;3.00;;;;;21.96;35.72;101670.75;4950660;28;46440;-52
2022/05/14 10:09:50;;;;;;;;;3.75;3.00;;;;;22.09;36.08;101663.88;4943690;28;45333;-53
2022/05/14 10:12:31;;;;;;;;;3.25;3.00;;;;;22.26;35.77;101665.72;4951545;28;45451;-52
2022/05/14 10:15:04;;;;;;;;;5.25;3.25;;;;;22.43;35.57;101661.38;4950403;28;45871;-55
2022/05/14 10:17:41;;;;;;;;;2.50;2.50;;;;;22.60;35.61;101663.22;4952603;28;46377;-48
2022/05/14 10:20:15;;;;;;;;;4.50;3.75;;;;;22.77;35.70;101659.69;4950262;28;45726;-47
2022/05/14 10:29:08;;;;;;;;;3.75;3.75;;;;;23.43;35.48;101664.28;4951487;28;45781;-50
2022/05/14 10:31:45;;;;;;;;;4.75;4.00;;;;;23.64;35.34;101654.19;4950276;28;45795;-47
2022/05/14 10:34:17;;;;;;;;;3.75;3.75;;;;;23.89;35.39;101660.91;4948820;28;45380;-47
2022/05/14 10:36:55;;;;;;;;;2.50;2.50;;;;;24.11;35.60;101649.84;4951702;28;45501;-46
2022/05/14 10:39:42;;;;;;;;;2.00;2.00;;;;;24.40;35.53;101659.84;4933004;28;46171;-48
2022/05/14 10:42:19;;;;;;;;;4.25;4.00;;;;;24.66;35.22;101648.47;4950913;28;45529;-44
2022/05/14 10:45:12;;;;;;;;;3.00;3.00;;;;;24.92;35.41;101654.09;4952282;28;45541;-48
2022/05/14 10:47:45;;;;;;;;;5.00;3.50;;;;;25.15;35.25;101651.81;4951798;28;45528;-45
2022/05/14 10:50:16;;;;;;;;;3.00;3.00;;;;;25.38;35.23;101654.94;4956532;28;45995;-44
2022/05/14 10:52:44;;;;;;;;;2.25;2.25;;;;;25.58;34.99;101638.41;4943065;28;45823;-45
2022/05/14 10:55:48;;;;;;;;;6.50;5.00;;;;;26.00;35.02;101646.50;4925292;28;45385;-45
2022/05/14 10:58:35;;;;;;;;;3.00;3.00;;;;;26.36;34.35;101636.97;4925318;28;45608;-47
2022/05/14 11:01:02;;;;;;;;;6.25;5.00;;;;;26.72;34.63;101631.91;4949006;28;46056;-48
2022/05/14 11:03:32;;;;;;;;;4.25;3.50;;;;;27.08;34.78;101641.09;4949256;28;45208;-46
2022/05/14 11:06:00;;;;;;;;;3.25;3.25;;;;;27.46;34.64;101642.09;4953510;28;45517;-51
2022/05/14 11:08:39;;;;;;;;;3.00;3.00;;;;;27.85;34.24;101632.09;4951688;28;45571;-46
2022/05/14 11:11:13;;;;;;;;;4.25;4.25;;;;;28.24;34.35;101640.91;4952513;28;45183;-50
2022/05/14 11:13:39;;;;;;;;;4.25;3.50;;;;;28.62;33.54;101641.69;4950846;28;45538;-50
2022/05/14 11:16:12;;;;;;;;;4.50;3.25;;;;;29.01;33.46;101645.00;4951606;28;45431;-49
2022/05/14 11:18:53;;;;;;;;;2.75;2.75;;;;;29.42;33.28;101640.00;4952316;28;45446;-48
2022/05/14 11:21:32;;;;;;;;;3.75;3.75;;;;;29.74;33.13;101629.25;4934997;28;45973;-48
2022/05/14 11:24:01;;;;;;;;;6.00;3.25;;;;;30.08;33.18;101634.63;4962048;28;45571;-50
2022/05/14 11:26:27;;;;;;;;;3.25;2.25;;;;;30.37;32.98;101627.75;4962381;28;45209;-42
2022/05/14 11:29:01;;;;;;;;;5.50;3.75;;;;;30.68;32.68;101617.88;4955232;28;45532;-49
2022/05/14 11:31:29;;;;;;;;;2.75;2.75;;;;;30.99;32.17;101620.63;4934507;28;47160;-49
2022/05/14 11:33:59;;;;;;;;;4.00;3.50;;;;;31.25;31.96;101625.66;4962041;28;45472;-46
2022/05/14 11:36:34;;;;;;;;;3.00;3.00;;;;;31.52;32.16;101618.72;4961815;28;45437;-47
2022/05/14 11:39:23;;;;;;;;;4.50;3.25;;;;;31.84;31.98;101613.13;4937144;28;45449;-47
2022/05/14 11:41:53;;;;;;;;;4.50;4.25;;;;;32.17;31.72;101615.59;4951390;28;46117;-47
2022/05/14 11:44:47;;;;;;;;;4.00;3.00;;;;;32.61;31.35;101612.44;4956135;28;45292;-45
2022/05/14 11:48:00;;;;;;;;;1.25;1.25;;;;;33.06;31.57;101606.34;4948378;28;45347;-48
2022/05/14 11:50:36;;;;;;;;;5.25;3.75;;;;;33.45;30.55;101618.97;4943079;28;45725;-49
2022/05/14 11:53:07;;;;;;;;;5.50;3.75;;;;;33.76;30.72;101611.31;4959467;28;46088;-52
2022/05/14 11:56:06;;;;;;;;;9.50;9.25;;;;;34.03;30.60;101609.56;4961674;28;45447;-48
2022/05/14 11:58:40;;;;;;;;;5.00;4.25;;;;;34.32;30.34;101605.72;4952876;28;45392;-46
2022/05/14 12:01:36;;;;;;;;;2.25;2.25;;;;;34.58;30.02;101605.81;4961634;28;45347;-49
2022/05/14 12:04:08;;;;;;;;;2.00;2.00;;;;;34.75;29.62;101612.22;4955507;28;45485;-47
2022/05/14 12:06:52;;;;;;;;;3.00;2.75;;;;;34.87;29.54;101607.38;4955218;28;45324;-49
2022/05/14 12:09:37;;;;;;;;;3.00;3.00;;;;;34.94;28.58;101608.44;4949937;28;45324;-49
2022/05/14 12:12:13;;;;;;;;;1.25;1.25;;;;;34.84;28.28;101602.19;4942555;28;45490;-50
2022/05/14 12:14:39;;;;;;;;;4.00;3.25;;;;;34.63;28.09;101600.72;4933381;28;46164;-51
2022/05/14 12:17:08;;;;;;;;;3.50;3.50;;;;;34.44;28.03;101598.19;4951395;28;45470;-52
2022/05/14 12:19:40;;;;;;;;;4.00;3.75;;;;;34.32;27.76;101594.81;4952067;28;45232;-53
2022/05/14 12:22:15;;;;;;;;;3.00;3.00;;;;;34.19;27.47;101587.06;4951588;28;45572;-54
2022/05/14 12:25:03;;;;;;;;;4.00;3.00;;;;;34.03;27.34;101582.31;4936584;28;46397;-55
2022/05/14 12:27:31;;;;;;;;;2.50;2.50;;;;;33.82;26.93;101579.88;4951599;28;45463;-49
2022/05/14 12:30:00;;;;;;;;;1.25;1.25;;;;;33.67;27.03;101583.13;4952659;28;45287;-48
2022/05/14 12:35:25;;;;;;;;;3.25;2.50;;;;;33.53;27.15;101579.06;4949712;28;45450;-50
2022/05/14 12:37:55;;;;;;;;;4.00;4.00;;;;;33.54;27.36;101560.84;4937953;28;45313;-50
2022/05/14 12:40:30;;;;;;;;;2.00;1.50;;;;;33.64;27.09;101566.22;4952201;28;45303;-49
2022/05/14 12:42:57;;;;;;;;;4.00;3.00;;;;;33.79;27.27;101563.81;4932986;28;45448;-52
2022/05/14 13:08:47;;;;;;;;;4.50;4.50;;;;;35.21;26.96;101551.91;5252761;23;45889;-45
2022/05/14 13:11:19;;;;;;;;;3.00;2.25;;;;;35.35;26.65;101552.28;4977860;28;45412;-49
2022/05/14 13:13:49;;;;;;;;;30.50;16.50;;;;;35.45;26.24;101542.13;4980338;28;45395;-51
2022/05/14 13:16:24;;;;;;;;;3.00;2.00;;;;;35.58;26.50;101536.16;4967784;28;46128;-48
2022/05/14 13:19:00;;;;;;;;;4.75;2.00;;;;;35.72;26.15;101540.13;4979238;28;45403;-59
2022/05/14 13:21:44;;;;;;;;;6.00;3.00;;;;;35.87;26.08;101529.41;4980070;28;45285;-49
2022/05/14 13:24:21;;;;;;;;;3.00;3.00;;;;;36.05;25.95;101530.09;4979163;28;45327;-47
2022/05/14 13:26:49;;;;;;;;;3.00;2.00;;;;;36.19;25.71;101524.94;4979616;28;47655;-50
2022/05/14 13:29:27;;;;;;;;;2.75;2.00;;;;;36.23;25.45;101520.84;4978346;28;45591;-48
2022/05/14 13:32:03;;;;;;;;;2.00;2.00;;;;;36.21;25.72;101517.44;4979922;28;45532;-49
2022/05/14 13:37:42;;;;;;;;;1.00;1.00;;;;;36.30;25.25;101515.53;4928681;28;45832;-46
2022/05/14 13:40:21;;;;;;;;;2.00;2.00;;;;;36.35;25.05;101524.06;4922356;28;45564;-51
2022/05/14 14:03:53;;;;;;;;;2.75;2.75;;;;;36.25;24.48;101486.81;5091133;23;45360;-46
2022/05/14 14:06:20;;;;;;;;;2.00;2.00;;;;;36.19;24.67;101492.13;4972671;28;45429;-50
2022/05/14 14:08:46;;;;;;;;;3.00;3.00;;;;;36.11;24.74;101495.72;4968574;28;45513;-46
2022/05/14 14:11:13;;;;;;;;;1.75;1.75;;;;;35.98;24.57;101485.31;4966444;28;45535;-49
2022/05/14 14:13:40;;;;;;;;;2.25;1.00;;;;;35.83;24.16;101489.75;4965806;28;45416;-51
2022/05/14 14:16:07;;;;;;;;;3.00;3.00;;;;;35.64;24.39;101487.16;4959898;28;45302;-50
2022/05/14 14:18:34;;;;;;;;;3.75;3.00;;;;;35.45;24.38;101485.59;4959856;28;46003;-50
2022/05/14 14:21:02;;;;;;;;;2.00;2.00;;;;;35.28;24.37;101478.34;4959900;28;45330;-52
2022/05/14 14:23:31;;;;;;;;;2.75;2.75;;;;;35.17;24.78;101482.28;4961430;28;45405;-47
2022/05/14 14:26:00;;;;;;;;;2.00;1.25;;;;;35.04;24.59;101479.16;4943757;28;46611;-47
2022/05/14 14:28:25;;;;;;;;;2.50;1.50;;;;;34.87;24.43;101473.63;4956513;28;46950;-47
2022/05/14 14:30:51;;;;;;;;;1.25;1.25;;;;;34.74;24.39;101471.31;4963079;28;45439;-48
2022/05/14 14:33:17;;;;;;;;;2.75;2.75;;;;;34.62;24.56;101470.75;4946772;28;45295;-47
2022/05/14 14:35:43;;;;;;;;;2.50;2.50;;;;;34.48;24.38;101465.94;4964021;28;45559;-48
2022/05/14 14:38:10;;;;;;;;;2.75;2.75;;;;;34.36;24.47;101464.50;4967384;28;46723;-50
2022/05/14 14:40:36;;;;;;;;;2.00;2.00;;;;;34.23;24.57;101465.75;4948524;28;45385;-51
2022/05/14 14:43:02;;;;;;;;;4.25;3.00;;;;;34.09;24.45;101461.72;4964012;28;45339;-48
2022/05/14 14:45:29;;;;;;;;;2.75;2.50;;;;;33.94;24.42;101458.72;4963126;28;45268;-49
2022/05/14 14:47:54;;;;;;;;;2.00;2.00;;;;;33.81;24.53;101455.50;4948492;28;47662;-59
2022/05/14 14:50:24;;;;;;;;;2.50;2.00;;;;;33.69;24.56;101446.72;4965828;28;44685;-47
2022/05/14 14:52:50;;;;;;;;;2.00;2.00;;;;;33.54;24.80;101432.81;4947604;28;45459;-58
2022/05/14 14:55:16;;;;;;;;;2.50;2.50;;;;;33.46;24.95;101439.03;4963170;28;45465;-57
2022/05/14 14:57:42;;;;;;;;;2.00;2.00;;;;;33.35;24.65;101431.94;4946679;28;45210;-57
2022/05/14 15:00:12;;;;;;;;;4.50;2.75;;;;;33.29;24.72;101437.16;4965356;28;45188;-49
2022/05/14 15:03:04;;;;;;;;;3.00;1.00;;;;;33.13;24.51;101430.53;4965596;28;45493;-47
2022/05/14 15:05:34;;;;;;;;;2.50;2.50;;;;;33.01;24.44;101438.03;4947882;28;45464;-50
2022/05/14 15:08:02;;;;;;;;;2.25;1.50;;;;;32.85;24.79;101424.22;4965614;28;47357;-50
2022/05/14 15:10:29;;;;;;;;;2.75;2.75;;;;;32.83;24.68;101435.28;4957969;28;46025;-51
2022/05/14 15:12:58;;;;;;;;;2.00;2.00;;;;;32.77;25.13;101437.72;4962823;28;45324;-51
2022/05/14 15:15:24;;;;;;;;;2.00;2.00;;;;;32.71;25.15;101429.13;4962826;28;45361;-51
2022/05/14 15:17:49;;;;;;;;;1.00;1.00;;;;;32.65;24.87;101424.28;4965582;28;45308;-52
2022/05/14 15:20:16;;;;;;;;;1.75;1.75;;;;;32.62;24.85;101424.59;4963751;28;45236;-48
2022/05/14 15:22:42;;;;;;;;;3.00;3.00;;;;;32.56;25.24;101422.47;4965165;28;45378;-49
2022/05/14 15:25:10;;;;;;;;;3.75;2.75;;;;;32.53;25.38;101425.50;4964058;28;45512;-48
2022/05/14 15:27:36;;;;;;;;;1.75;1.75;;;;;32.46;25.18;101421.69;4964730;28;46229;-49
2022/05/14 15:30:04;;;;;;;;;3.00;3.00;;;;;32.41;25.44;101414.81;4947568;28;46103;-47
2022/05/14 15:32:30;;;;;;;;;4.25;2.50;;;;;32.34;25.08;101419.13;4948091;28;45308;-50
2022/05/14 15:34:56;;;;;;;;;4.25;2.25;;;;;32.28;25.61;101417.00;4964163;28;45379;-48
2022/05/14 15:37:22;;;;;;;;;5.00;2.75;;;;;32.21;24.96;101413.16;4964996;28;45407;-47
2022/05/14 15:39:48;;;;;;;;;3.75;2.25;;;;;32.14;25.05;101403.84;4963008;28;45316;-52
2022/05/14 15:42:20;;;;;;;;;5.25;1.75;;;;;32.07;25.37;101409.88;4960578;28;45426;-52
2022/05/14 15:44:54;;;;;;;;;2.00;2.00;;;;;32.00;25.30;101413.31;4962239;28;45227;-53
2022/05/14 15:47:24;;;;;;;;;2.25;2.25;;;;;31.92;25.02;101408.63;4961022;28;46506;-50
2022/05/14 15:49:53;;;;;;;;;2.25;2.25;;;;;31.85;24.59;101404.78;4961940;28;45181;-52
2022/05/14 15:52:21;;;;;;;;;1.00;1.00;;;;;31.82;25.63;101405.06;4961638;28;45442;-52
2022/05/14 15:54:47;;;;;;;;;0.75;0.75;;;;;31.76;24.94;101406.50;4961620;28;45348;-53
2022/05/14 15:57:12;;;;;;;;;1.00;1.00;;;;;31.67;24.89;101397.34;4962163;28;46095;-53
2022/05/14 15:59:38;;;;;;;;;2.00;2.00;;;;;31.58;24.94;101395.50;4962162;28;45225;-53
2022/05/14 16:02:05;;;;;;;;;1.50;1.50;;;;;31.52;25.04;101407.78;4962226;28;45260;-48
2022/05/14 16:04:30;;;;;;;;;3.00;3.00;;;;;31.43;25.67;101400.50;4961471;28;45520;-51
2022/05/14 16:06:56;;;;;;;;;1.50;1.50;;;;;31.34;25.19;101390.50;4943945;28;46680;-53
2022/05/14 16:09:21;;;;;;;;;2.50;2.50;;;;;31.29;24.87;101390.91;4962094;28;45413;-50
2022/05/14 16:17:07;;;;;;;;;3.50;3.50;;;;;31.08;24.87;101388.31;4962183;28;46224;-50
2022/05/14 16:19:33;;;;;;;;;3.25;3.25;;;;;31.01;24.74;101387.16;4960584;28;45315;-51
2022/05/14 16:21:59;;;;;;;;;2.00;2.00;;;;;30.97;25.09;101389.28;4961335;28;45386;-52
2022/05/14 16:24:25;;;;;;;;;3.00;3.00;;;;;30.90;24.82;101380.84;4961635;28;45322;-48
2022/05/14 16:26:51;;;;;;;;;2.00;1.00;;;;;30.85;25.33;101380.41;4961326;28;46108;-51
2022/05/14 16:29:17;;;;;;;;;4.00;4.00;;;;;30.77;24.92;101383.81;4961291;28;45344;-51
2022/05/14 16:31:44;;;;;;;;;3.25;3.25;;;;;30.70;25.05;101374.50;4961579;28;45216;-51
2022/05/14 16:34:10;;;;;;;;;1.75;1.75;;;;;30.67;25.18;101382.94;4961522;28;45570;-48
2022/05/14 16:36:36;;;;;;;;;2.00;2.00;;;;;30.59;24.91;101380.03;4961021;28;46352;-50
2022/05/14 16:39:03;;;;;;;;;2.00;2.00;;;;;30.48;24.90;101376.44;4943864;28;45270;-50
2022/05/14 16:41:28;;;;;;;;;3.00;2.25;;;;;30.41;25.16;101377.09;4960317;28;45438;-52
2022/05/14 16:43:55;;;;;;;;;2.25;2.00;;;;;30.32;24.84;101376.06;4961335;28;45525;-51
2022/05/14 16:46:21;;;;;;;;;2.75;2.75;;;;;30.22;25.17;101367.03;4961032;28;46206;-49
2022/05/14 16:48:47;;;;;;;;;2.25;2.25;;;;;30.15;24.85;101367.56;4961222;28;45256;-48
2022/05/14 16:51:17;;;;;;;;;5.75;3.25;;;;;30.08;25.40;101371.81;4959690;28;45319;-51
2022/05/14 16:53:43;;;;;;;;;2.75;2.75;;;;;29.98;25.33;101352.78;4960022;28;45465;-50
2022/05/14 16:56:26;;;;;;;;;2.00;2.00;;;;;29.90;25.23;101355.31;4960904;28;46912;-48
2022/05/14 16:58:52;;;;;;;;;4.00;2.75;;;;;29.82;25.14;101355.06;4961475;28;45401;-48
2022/05/14 17:01:18;;;;;;;;;2.75;2.75;;;;;29.73;25.20;101350.47;4961527;28;45396;-50
2022/05/14 17:03:43;;;;;;;;;2.00;2.00;;;;;29.68;25.38;101358.97;4959929;28;45441;-46
2022/05/14 17:06:09;;;;;;;;;3.25;3.25;;;;;29.60;25.39;101356.09;4959351;28;47189;-51
2022/05/14 17:08:34;;;;;;;;;1.50;1.50;;;;;29.51;25.33;101347.75;4961559;28;45286;-47
2022/05/14 17:11:00;;;;;;;;;4.50;4.25;;;;;29.42;25.20;101351.25;4957847;28;46464;-49
2022/05/14 17:13:27;;;;;;;;;4.50;4.50;;;;;29.31;25.58;101349.44;4961189;28;45185;-49
2022/05/14 17:15:52;;;;;;;;;9.75;8.75;;;;;29.20;25.39;101341.34;4960692;28;46503;-47
2022/05/14 17:18:19;;;;;;;;;4.25;4.25;;;;;29.13;25.47;101343.72;4961115;28;45287;-50
2022/05/14 17:20:49;;;;;;;;;9.75;9.75;;;;;29.03;25.72;101343.63;4961053;28;45245;-48
2022/05/14 17:23:15;;;;;;;;;3.50;3.50;;;;;28.93;25.83;101347.22;4960752;28;45420;-49
2022/05/14 17:25:41;;;;;;;;;4.25;4.25;;;;;28.80;25.66;101337.41;4961415;28;45319;-47
2022/05/14 17:28:06;;;;;;;;;9.75;9.00;;;;;28.70;25.73;101341.84;4960944;28;45264;-52
2022/05/14 17:30:34;;;;;;;;;7.50;7.50;;;;;28.60;26.03;101344.41;4962838;28;45343;-49
2022/05/14 17:33:01;;;;;;;;;3.00;3.00;;;;;28.49;26.00;101345.31;4960085;28;45471;-50
2022/05/14 17:35:27;;;;;;;;;9.25;7.50;;;;;28.40;26.10;101346.03;4961423;28;45499;-46
2022/05/14 17:51:44;;;;;;;;;6.25;4.00;;;;;27.78;26.73;101341.91;5617575;23;46772;-48
2022/05/14 17:54:09;;;;;;;;;7.00;6.00;;;;;27.68;26.62;101342.63;5005726;28;45549;-49
2022/05/14 17:56:35;;;;;;;;;4.00;4.00;;;;;27.60;26.30;101341.47;5006145;28;45545;-46
2022/05/14 17:59:00;;;;;;;;;3.00;3.00;;;;;27.52;26.84;101340.25;4998099;28;45425;-49
2022/05/14 18:01:26;;;;;;;;;5.25;5.25;;;;;27.41;27.28;101332.97;5005690;28;45692;-46
2022/05/14 18:03:54;;;;;;;;;7.25;6.50;;;;;27.35;27.02;101344.19;4986425;28;46105;-46
2022/05/14 18:06:20;;;;;;;;;6.50;5.25;;;;;27.25;26.69;101333.25;4982821;28;47084;-48
2022/05/14 18:08:45;;;;;;;;;8.50;6.50;;;;;27.19;27.44;101339.09;4996332;28;45219;-49
2022/05/14 18:13:55;;;;;;;;;8.50;7.50;;;;;27.09;27.38;101338.97;4983132;28;45327;-47
2022/05/14 18:16:22;;;;;;;;;5.75;5.75;;;;;27.06;27.15;101324.84;4983057;28;47125;-47
2022/05/14 18:18:47;;;;;;;;;7.00;7.00;;;;;27.01;27.28;101327.88;4982869;28;45465;-48
2022/05/14 18:21:13;;;;;;;;;12.50;8.00;;;;;26.97;27.38;101329.06;4982660;28;45394;-47
2022/05/14 18:23:39;;;;;;;;;9.50;8.25;;;;;26.96;27.25;101329.19;4983188;28;45303;-50
2022/05/14 18:26:07;;;;;;;;;12.00;12.00;;;;;26.89;27.33;101323.38;4998672;28;46278;-48
2022/05/14 18:28:37;;;;;;;;;20.00;16.75;;;;;26.86;27.61;101323.63;4995424;28;45484;-47
2022/05/14 18:31:04;;;;;;;;;11.50;9.25;;;;;26.82;27.86;101314.03;4982830;28;45362;-48
2022/05/14 18:33:38;;;;;;;;;14.00;14.00;;;;;26.78;27.49;101324.19;4982320;28;45453;-46
2022/05/14 18:36:06;;;;;;;;;14.25;12.75;;;;;26.73;27.66;101316.44;4982124;28;46241;-46
2022/05/14 18:38:40;;;;;;;;;19.75;15.75;;;;;26.68;27.20;101309.63;4982262;28;45354;-45
2022/05/14 18:41:08;;;;;;;;;14.50;11.50;;;;;26.63;27.81;101317.19;4982613;28;45314;-57
2022/05/14 18:43:36;;;;;;;;;9.00;9.00;;;;;26.58;27.53;101317.53;4982601;28;45352;-45
2022/05/14 18:46:05;;;;;;;;;9.00;7.75;;;;;26.53;27.42;101317.03;4982597;28;45402;-46
2022/05/14 18:48:32;;;;;;;;;7.50;7.50;;;;;26.47;28.08;101318.31;4981242;28;45489;-48
2022/05/14 18:50:58;;;;;;;;;5.75;4.00;;;;;26.42;27.79;101326.72;4982075;28;45415;-48
2022/05/14 18:53:23;;;;;;;;;6.50;6.50;;;;;26.38;27.99;101324.38;4989128;28;45221;-48
2022/05/14 18:55:50;;;;;;;;;7.00;6.00;;;;;26.32;28.08;101324.81;4988298;28;46009;-45
2022/05/14 18:58:15;;;;;;;;;5.50;5.50;;;;;26.25;28.16;101322.56;4982236;28;45389;-45
2022/05/14 19:00:43;;;;;;;;;5.75;5.75;;;;;26.20;28.25;101329.22;4982117;28;45301;-45
2022/05/14 19:03:08;;;;;;;;;6.50;6.50;;;;;26.14;27.86;101329.66;4982207;28;45582;-45
2022/05/14 19:08:19;;;;;;;;;5.00;5.00;;;;;26.00;28.12;101326.13;4992530;28;45342;-45
2022/05/14 19:10:45;;;;;;;;;4.75;4.75;;;;;25.94;28.25;101327.38;4982811;28;45429;-47
2022/05/14 19:13:11;;;;;;;;;6.75;6.75;;;;;25.88;27.99;101325.13;4993746;28;45434;-44
2022/05/14 19:15:37;;;;;;;;;6.00;5.00;;;;;25.82;28.20;101313.94;4978445;28;47739;-45
2022/05/14 19:18:03;;;;;;;;;6.00;5.00;;;;;25.76;28.46;101309.81;4993664;28;45330;-46
2022/05/14 19:20:30;;;;;;;;;11.00;10.00;;;;;25.70;28.05;101312.94;4981864;28;45374;-47
2022/05/14 19:22:56;;;;;;;;;18.50;14.75;;;;;25.64;28.60;101316.94;4980325;28;46219;-44
2022/05/14 19:25:22;;;;;;;;;6.50;6.50;;;;;25.56;28.32;101314.78;4992645;28;45733;-44
2022/05/14 19:27:47;;;;;;;;;9.00;8.25;;;;;25.51;28.46;101310.66;4996298;28;45274;-44
2022/05/14 19:30:13;;;;;;;;;8.50;7.50;;;;;25.45;28.42;101320.03;4985133;28;46274;-44
2022/05/14 19:32:39;;;;;;;;;7.25;7.25;;;;;25.40;28.58;101316.78;4992584;28;45513;-46
2022/05/14 19:35:05;;;;;;;;;7.25;7.25;;;;;25.34;28.27;101309.97;4980555;28;45878;-46
2022/05/14 19:37:38;;;;;;;;;7.50;7.00;;;;;25.29;28.61;101310.25;4981721;28;45327;-50
2022/05/14 19:40:13;;;;;;;;;13.00;12.25;;;;;25.24;28.54;101306.16;4982279;28;45272;-46
2022/05/14 19:42:49;;;;;;;;;15.50;14.75;;;;;25.18;28.29;101306.59;4981748;28;45472;-48
2022/05/14 19:45:20;;;;;;;;;16.00;15.25;;;;;25.11;28.97;101306.13;4984870;28;45502;-46
2022/05/14 20:21:49;;;;;;;;;24.50;21.75;;;;;24.32;29.79;101335.38;4979045;28;45294;-46
2022/05/14 20:24:14;;;;;;;;;24.50;23.75;;;;;24.22;29.88;101318.97;4963300;28;45508;-45
2022/05/14 20:26:39;;;;;;;;;24.50;22.25;;;;;24.22;29.59;101327.00;4979520;28;45470;-44
2022/05/14 20:29:05;;;;;;;;;28.00;25.25;;;;;24.17;29.69;101321.91;4971223;28;46167;-44
2022/05/14 20:31:30;;;;;;;;;31.75;29.00;;;;;24.14;29.78;101330.19;4979005;28;45713;-44
2022/05/14 20:33:55;;;;;;;;;29.75;26.75;;;;;24.10;29.54;101327.78;4981009;28;45690;-38
2022/05/14 20:36:21;;;;;;;;;31.00;27.75;;;;;24.06;29.48;101326.25;4980549;28;45503;-41
2022/05/14 20:38:46;;;;;;;;;26.25;24.25;;;;;24.02;29.95;101331.81;4980556;28;45263;-46
2022/05/14 20:41:11;;;;;;;;;26.00;24.25;;;;;23.98;29.87;101341.00;4980759;28;45401;-41
2022/05/14 20:43:37;;;;;;;;;19.75;19.50;;;;;23.94;30.08;101335.94;4980928;28;45246;-39
2022/05/14 20:46:02;;;;;;;;;21.75;19.50;;;;;23.90;30.18;101334.34;4980956;28;45244;-43
2022/05/14 20:48:28;;;;;;;;;24.25;23.00;;;;;23.84;29.96;101333.75;4980534;28;45275;-40
2022/05/14 20:50:54;;;;;;;;;24.25;22.00;;;;;23.81;30.07;101338.44;4980339;28;45287;-39
2022/05/14 20:53:20;;;;;;;;;29.50;27.25;;;;;23.77;30.28;101326.19;4980829;28;45275;-39
2022/05/14 20:55:46;;;;;;;;;28.00;26.00;;;;;23.74;30.27;101337.97;4980442;28;45593;-43
2022/05/14 20:58:11;;;;;;;;;27.25;23.00;;;;;23.62;30.38;101312.75;4980273;28;45398;-43
2022/05/14 21:00:37;;;;;;;;;34.50;27.50;;;;;23.66;30.23;101326.81;4980568;28;45319;-43
2022/05/14 21:03:03;;;;;;;;;30.00;26.50;;;;;23.63;30.22;101330.56;4979210;28;45336;-53
2022/05/14 21:05:31;;;;;;;;;28.50;25.25;;;;;23.59;30.48;101334.38;4979054;28;45406;-48
2022/05/14 21:07:57;;;;;;;;;32.75;28.50;;;;;23.56;30.62;101325.66;4963160;28;46904;-43
2022/05/14 21:10:23;;;;;;;;;20.75;18.00;;;;;23.51;30.79;101323.28;4972537;28;45259;-45
2022/05/14 21:12:49;;;;;;;;;33.00;28.75;;;;;23.45;30.71;101323.63;4980246;28;45265;-48
2022/05/14 21:15:27;;;;;;;;;31.50;29.25;;;;;23.44;30.52;101327.25;4980210;28;45311;-46
2022/05/14 21:17:53;;;;;;;;;30.25;28.75;;;;;23.40;30.82;101320.38;4980148;28;46359;-46
2022/05/14 21:20:20;;;;;;;;;27.00;26.50;;;;;23.33;30.72;101310.00;4962491;28;45369;-45
2022/05/14 21:22:46;;;;;;;;;24.75;24.50;;;;;23.33;30.80;101307.31;4980156;28;45372;-47
2022/05/14 21:25:15;;;;;;;;;25.75;23.75;;;;;23.29;31.03;101295.03;4979925;28;45240;-48
2022/05/14 21:27:41;;;;;;;;;23.75;22.00;;;;;23.26;31.27;101294.34;4978818;28;45623;-45
2022/05/14 21:30:07;;;;;;;;;20.75;19.50;;;;;23.22;31.06;101291.00;4973671;28;45342;-46
2022/05/14 21:32:33;;;;;;;;;19.75;17.50;;;;;23.18;31.15;101298.34;4980349;28;45407;-44
2022/05/14 21:37:42;;;;;;;;;24.25;24.25;;;;;23.12;31.30;101297.78;4979733;28;45781;-43
2022/05/14 21:40:19;;;;;;;;;25.50;21.75;;;;;23.07;31.28;101292.72;4980585;28;45319;-46
2022/05/14 21:42:44;;;;;;;;;21.75;19.25;;;;;23.04;31.32;101293.78;4983653;28;45399;-43
2022/05/14 21:45:10;;;;;;;;;23.25;19.25;;;;;22.98;31.47;101286.09;4977835;28;45281;-41
2022/05/14 21:47:35;;;;;;;;;21.00;19.25;;;;;22.96;31.36;101290.66;4975784;28;45281;-42
2022/05/14 21:50:01;;;;;;;;;16.50;16.25;;;;;22.92;31.47;101285.56;4983293;28;45317;-44
2022/05/14 21:52:26;;;;;;;;;17.00;16.25;;;;;22.87;31.08;101277.81;4965083;28;45547;-46
2022/05/14 21:54:52;;;;;;;;;21.25;17.75;;;;;22.85;31.73;101282.38;4982522;28;45509;-44
2022/05/14 21:57:17;;;;;;;;;19.00;16.50;;;;;22.81;31.36;101284.38;4981365;28;46432;-44
2022/05/14 21:59:43;;;;;;;;;19.25;17.50;;;;;22.79;31.34;101285.41;4982913;28;45224;-45
2022/05/14 22:02:10;;;;;;;;;16.75;15.00;;;;;22.75;31.42;101291.91;4983033;28;45467;-46
2022/05/14 22:04:44;;;;;;;;;14.75;12.50;;;;;22.70;31.30;101293.03;4982718;28;45506;-46
2022/05/14 22:07:12;;;;;;;;;17.75;16.25;;;;;22.66;31.69;101286.09;4964461;28;46260;-46